Red Diamond — A8UM9 — position and weather

sailwx.info

Track history (hours):
 
Tides and Currents Weather Stations Pressure Air Temp Water Temp Dewpoint Dewpoint Depression Visibility Wind Speed Wind Dir Waves Ship Positions

Red Diamond

Last reported at 2017-Jul-08 09:46 UTC. Time now 2017-Aug-22 22:38 UTC.
Position S 19°42' E 058°03'.
Warning: this ship's position is 45 days out of date.

Length 190 m; draft 12.8 m.

Type: Ship. MMSI: 636014524.

Date/timePositionNaut miles runAvg speedWind from/ knotsBaromVisibWave heightAir tempDewpointWater temp
2017-Jul-08 09:46S 19°42' E 058°03'310.8
2017-Jul-08 09:30S 19°43' E 057°60'510.9
2017-Jul-08 09:01S 19°44' E 057°54'610.9
2017-Jul-08 08:30S 19°46' E 057°49'611.2
2017-Jul-08 08:00S 19°47' E 057°43'611.3
2017-Jul-08 07:30S 19°49' E 057°37'612.4
2017-Jul-08 07:00S 19°54' E 057°33'713.1
2017-Jul-08 06:30S 19°59' E 057°29'612.5
2017-Jul-08 06:01S 20°05' E 057°28'3 5.2
2017-Jul-08 05:30S 20°08' E 057°29'0 0.1
2017-Jul-08 05:00S 20°08' E 057°29'0 0.1
2017-Jul-08 04:30S 20°08' E 057°29'0 0.0
2017-Jul-08 04:00S 20°08' E 057°29'0 0.1
2017-Jul-08 03:30S 20°08' E 057°29'0 0.1
2017-Jul-08 03:01S 20°08' E 057°29'0 0.1
2017-Jul-08 02:31S 20°08' E 057°29'0 0.1
2017-Jul-08 02:01S 20°08' E 057°29'0 0.0
2017-Jul-08 01:30S 20°08' E 057°29'0 0.0
2017-Jul-08 01:00S 20°08' E 057°29'0 0.0
2017-Jul-08 00:30S 20°08' E 057°29'0 0.0
2017-Jul-08 00:00S 20°08' E 057°29'0 0.0
2017-Jul-07 23:30S 20°08' E 057°29'0 0.0
2017-Jul-07 23:00S 20°08' E 057°29'0 0.1
2017-Jul-07 22:30S 20°08' E 057°29'0 0.1
2017-Jul-07 22:00S 20°08' E 057°29'0 0.2
2017-Jul-07 21:30S 20°08' E 057°29'0 0.0
2017-Jul-07 21:00S 20°08' E 057°29'0 0.1
2017-Jul-07 20:30S 20°08' E 057°29'0 0.0
2017-Jul-07 20:00S 20°08' E 057°29'0 0.1
2017-Jul-07 19:30S 20°08' E 057°29'1 1.7
2017-Jul-07 19:00S 20°07' E 057°28'2 4.9
2017-Jul-07 18:31S 20°06' E 057°26'5 9.1
2017-Jul-07 18:01S 20°09' E 057°23'3 6.1
2017-Jul-07 17:31S 20°12' E 057°20'611.0
2017-Jul-07 17:00S 20°14' E 057°15'612.6
2017-Jul-07 16:31S 20°17' E 057°09'  
Track history (hours):
 
Tides and Currents Weather Stations Pressure Air Temp Water Temp Dewpoint Dewpoint Depression Visibility Wind Speed Wind Dir Waves Ship Positions

Red Diamond

Last reported at 2017-Jul-08 09:46 UTC. Time now 2017-Aug-22 22:38 UTC.
Position S 19°42' E 058°03'.
Warning: this ship's position is 45 days out of date.

Length 190 m; draft 12.8 m.

Type: Ship. MMSI: 636014524.

Date/timePositionNaut miles runAvg speedWind from/ knotsBaromVisibWave heightAir tempDewpointWater temp
2017-Jul-08 09:46S 19°42' E 058°03'310.8
2017-Jul-08 09:30S 19°43' E 057°60'510.9
2017-Jul-08 09:01S 19°44' E 057°54'610.9
2017-Jul-08 08:30S 19°46' E 057°49'611.2
2017-Jul-08 08:00S 19°47' E 057°43'611.3
2017-Jul-08 07:30S 19°49' E 057°37'612.4
2017-Jul-08 07:00S 19°54' E 057°33'713.1
2017-Jul-08 06:30S 19°59' E 057°29'612.5
2017-Jul-08 06:01S 20°05' E 057°28'3 5.2
2017-Jul-08 05:30S 20°08' E 057°29'0 0.1
2017-Jul-08 05:00S 20°08' E 057°29'0 0.1
2017-Jul-08 04:30S 20°08' E 057°29'0 0.0
2017-Jul-08 04:00S 20°08' E 057°29'0 0.1
2017-Jul-08 03:30S 20°08' E 057°29'0 0.1
2017-Jul-08 03:01S 20°08' E 057°29'0 0.1
2017-Jul-08 02:31S 20°08' E 057°29'0 0.1
2017-Jul-08 02:01S 20°08' E 057°29'0 0.0
2017-Jul-08 01:30S 20°08' E 057°29'0 0.0
2017-Jul-08 01:00S 20°08' E 057°29'0 0.0
2017-Jul-08 00:30S 20°08' E 057°29'0 0.0
2017-Jul-08 00:00S 20°08' E 057°29'0 0.0
2017-Jul-07 23:30S 20°08' E 057°29'0 0.0
2017-Jul-07 23:00S 20°08' E 057°29'0 0.1
2017-Jul-07 22:30S 20°08' E 057°29'0 0.1
2017-Jul-07 22:00S 20°08' E 057°29'0 0.2
2017-Jul-07 21:30S 20°08' E 057°29'0 0.0
2017-Jul-07 21:00S 20°08' E 057°29'0 0.1
2017-Jul-07 20:30S 20°08' E 057°29'0 0.0
2017-Jul-07 20:00S 20°08' E 057°29'0 0.1
2017-Jul-07 19:30S 20°08' E 057°29'1 1.7
2017-Jul-07 19:00S 20°07' E 057°28'2 4.9
2017-Jul-07 18:31S 20°06' E 057°26'5 9.1
2017-Jul-07 18:01S 20°09' E 057°23'3 6.1
2017-Jul-07 17:31S 20°12' E 057°20'611.0
2017-Jul-07 17:00S 20°14' E 057°15'612.6
2017-Jul-07 16:31S 20°17' E 057°09'  

Dump ship's entire track history